createdAt,value
2019-03-29T00:00:08.542Z,10.96
2019-03-29T00:01:07.918Z,10.94
2019-03-29T00:02:07.924Z,10.86
2019-03-29T00:03:08.966Z,10.87
2019-03-29T00:04:07.630Z,10.86
2019-03-29T00:05:07.864Z,10.75
2019-03-29T00:06:07.868Z,10.78
2019-03-29T00:07:08.306Z,10.76
2019-03-29T00:08:08.453Z,10.72
2019-03-29T00:09:07.858Z,10.67
2019-03-29T00:10:07.842Z,10.69
2019-03-29T00:11:07.817Z,10.63
2019-03-29T00:12:07.820Z,10.64
2019-03-29T00:13:07.822Z,10.61
2019-03-29T00:14:07.569Z,10.59
2019-03-29T00:15:08.060Z,10.6
2019-03-29T00:16:07.550Z,10.6
2019-03-29T00:17:07.547Z,10.53
2019-03-29T00:18:07.538Z,10.46
2019-03-29T00:19:07.786Z,10.46
2019-03-29T00:20:12.345Z,10.42
2019-03-29T00:21:07.525Z,10.34
2019-03-29T00:22:07.763Z,10.41
2019-03-29T00:23:07.808Z,10.4
2019-03-29T00:24:12.036Z,10.4
2019-03-29T00:25:07.449Z,10.4
2019-03-29T00:26:07.761Z,10.41
2019-03-29T00:27:07.501Z,10.42
2019-03-29T00:28:07.753Z,10.33
2019-03-29T00:29:08.155Z,10.31
2019-03-29T00:30:07.484Z,10.28
2019-03-29T00:31:07.226Z,10.25
2019-03-29T00:32:08.428Z,10.19
2019-03-29T00:33:07.460Z,10.09
2019-03-29T00:34:07.452Z,10.16
2019-03-29T00:35:08.021Z,10.13
2019-03-29T00:36:07.720Z,10.02
2019-03-29T00:37:07.442Z,10.09
2019-03-29T00:38:07.436Z,9.97
2019-03-29T00:39:07.183Z,10.01
2019-03-29T00:40:07.277Z,10.02
2019-03-29T00:41:07.667Z,9.95
2019-03-29T00:42:07.149Z,9.89
2019-03-29T00:43:07.405Z,9.8
2019-03-29T00:44:07.142Z,9.76
2019-03-29T00:45:07.388Z,9.8
2019-03-29T00:46:07.631Z,9.72
2019-03-29T00:47:08.723Z,9.68
2019-03-29T00:48:07.648Z,9.65
2019-03-29T00:49:07.633Z,9.76
2019-03-29T00:50:07.385Z,9.69
2019-03-29T00:51:07.614Z,9.68
2019-03-29T00:52:07.106Z,9.62
2019-03-29T00:53:07.356Z,9.65
2019-03-29T00:54:07.607Z,9.61
2019-03-29T00:55:07.396Z,9.54
2019-03-29T00:56:08.380Z,9.55
2019-03-29T00:57:07.649Z,9.59
2019-03-29T00:58:07.585Z,9.46
2019-03-29T00:59:07.314Z,9.44
2019-03-29T01:00:07.286Z,9.46
2019-03-29T01:01:07.555Z,9.56
2019-03-29T01:02:07.299Z,9.58
2019-03-29T01:03:07.536Z,9.58
2019-03-29T01:04:07.597Z,9.54
2019-03-29T01:05:07.267Z,9.55
2019-03-29T01:06:07.517Z,9.54
2019-03-29T01:07:07.620Z,9.51
2019-03-29T01:08:13.317Z,9.5
2019-03-29T01:09:07.630Z,9.56
2019-03-29T01:10:07.484Z,9.54
2019-03-29T01:11:07.011Z,9.55
2019-03-29T01:12:07.228Z,9.54
2019-03-29T01:13:06.972Z,9.56
2019-03-29T01:14:07.217Z,9.62
2019-03-29T01:15:07.231Z,9.55
2019-03-29T01:16:07.208Z,9.55
2019-03-29T01:17:07.210Z,9.61
2019-03-29T01:18:07.222Z,9.62
2019-03-29T01:19:08.254Z,9.64
2019-03-29T01:20:06.926Z,9.56
2019-03-29T01:21:08.280Z,9.58
2019-03-29T01:22:08.057Z,9.58
2019-03-29T01:23:07.170Z,9.55
2019-03-29T01:24:07.406Z,9.64
2019-03-29T01:25:07.969Z,9.62
2019-03-29T01:26:07.149Z,9.59
2019-03-29T01:27:07.156Z,9.62
2019-03-29T01:28:07.195Z,9.61
2019-03-29T01:29:07.149Z,9.65
2019-03-29T01:30:07.126Z,9.69
2019-03-29T01:31:07.118Z,9.64
2019-03-29T01:32:07.326Z,9.61
2019-03-29T01:33:07.350Z,9.72
2019-03-29T01:34:07.345Z,9.76
2019-03-29T01:35:07.403Z,9.8
2019-03-29T01:36:06.845Z,9.86
2019-03-29T01:37:07.333Z,9.84
2019-03-29T01:38:20.636Z,9.76
2019-03-29T01:39:07.320Z,9.8
2019-03-29T01:40:07.370Z,9.82
2019-03-29T01:41:07.093Z,9.84
2019-03-29T01:42:07.053Z,9.82
2019-03-29T01:43:07.050Z,9.89
2019-03-29T01:44:07.064Z,9.84
2019-03-29T01:45:06.797Z,9.86
2019-03-29T01:46:07.272Z,9.79
2019-03-29T01:47:08.502Z,9.83
2019-03-29T01:48:07.271Z,9.89
2019-03-29T01:49:07.022Z,9.74
2019-03-29T01:50:08.090Z,9.74
2019-03-29T01:51:08.869Z,9.73
2019-03-29T01:52:07.271Z,9.77
2019-03-29T01:53:07.234Z,9.64
2019-03-29T01:54:06.974Z,9.73
2019-03-29T01:55:07.078Z,9.72
2019-03-29T01:56:07.233Z,9.72
2019-03-29T01:57:06.967Z,9.79
2019-03-29T01:58:07.229Z,9.73
2019-03-29T01:59:06.951Z,9.68
2019-03-29T02:00:07.191Z,9.72
2019-03-29T02:01:07.819Z,9.77
2019-03-29T02:02:06.711Z,9.64
2019-03-29T02:03:06.930Z,9.65
2019-03-29T02:04:10.842Z,9.64
2019-03-29T02:05:06.681Z,9.65
2019-03-29T02:06:06.666Z,9.65
2019-03-29T02:07:06.899Z,9.69
2019-03-29T02:08:07.675Z,9.62
2019-03-29T02:09:07.543Z,9.64
2019-03-29T02:10:06.883Z,9.59
2019-03-29T02:11:06.642Z,9.54
2019-03-29T02:12:07.062Z,9.54
2019-03-29T02:13:06.937Z,9.54
2019-03-29T02:14:06.917Z,9.5
2019-03-29T02:15:06.600Z,9.61
2019-03-29T02:16:08.663Z,9.58
2019-03-29T02:17:07.102Z,9.56
2019-03-29T02:18:06.840Z,9.58
2019-03-29T02:19:08.073Z,9.51
2019-03-29T02:20:06.840Z,9.51
2019-03-29T02:21:06.848Z,9.47
2019-03-29T02:22:07.068Z,9.43
2019-03-29T02:23:07.779Z,9.5
2019-03-29T02:24:06.800Z,9.44
2019-03-29T02:25:06.805Z,9.41
2019-03-29T02:26:07.046Z,9.58
2019-03-29T02:27:07.052Z,9.58
2019-03-29T02:28:06.798Z,9.54
2019-03-29T02:29:06.527Z,9.41
2019-03-29T02:30:08.982Z,9.43
2019-03-29T02:31:06.809Z,9.37
2019-03-29T02:32:07.026Z,9.46
2019-03-29T02:33:06.733Z,9.43
2019-03-29T02:34:06.747Z,9.41
2019-03-29T02:35:07.000Z,9.29
2019-03-29T02:36:08.990Z,9.28
2019-03-29T02:37:07.317Z,9.32
2019-03-29T02:38:07.024Z,9.26
2019-03-29T02:39:07.019Z,9.18
2019-03-29T02:40:06.784Z,9.19
2019-03-29T02:41:06.711Z,9.18
2019-03-29T02:42:06.966Z,9.19
2019-03-29T02:43:06.482Z,9.18
2019-03-29T02:44:07.581Z,9.16
2019-03-29T02:45:08.260Z,9.08
2019-03-29T02:46:06.685Z,9.03
2019-03-29T02:47:06.683Z,9.03
2019-03-29T02:48:06.977Z,9
2019-03-29T02:49:06.668Z,9
2019-03-29T02:50:08.477Z,8.94
2019-03-29T02:51:07.390Z,8.94
2019-03-29T02:52:07.071Z,8.81
2019-03-29T02:53:06.894Z,8.91
2019-03-29T02:54:06.643Z,8.89
2019-03-29T02:55:06.616Z,8.82
2019-03-29T02:56:06.617Z,8.71
2019-03-29T02:57:06.604Z,8.7
2019-03-29T02:58:06.856Z,8.74
2019-03-29T02:59:06.853Z,8.71
2019-03-29T03:00:06.618Z,8.69
2019-03-29T03:01:06.628Z,8.64
2019-03-29T03:02:06.607Z,8.71
2019-03-29T03:03:06.886Z,8.7
2019-03-29T03:04:06.584Z,8.55
2019-03-29T03:05:06.582Z,8.58
2019-03-29T03:06:06.420Z,8.6
2019-03-29T03:07:06.610Z,8.55
2019-03-29T03:08:06.804Z,8.53
2019-03-29T03:09:17.951Z,8.55
2019-03-29T03:10:06.786Z,8.55
2019-03-29T03:11:06.556Z,8.51
2019-03-29T03:12:06.790Z,8.49
2019-03-29T03:13:06.759Z,8.48
2019-03-29T03:14:06.752Z,8.42
2019-03-29T03:15:06.744Z,8.42
2019-03-29T03:16:06.503Z,8.44
2019-03-29T03:17:06.750Z,8.27
2019-03-29T03:18:06.257Z,8.36
2019-03-29T03:19:06.728Z,8.33
2019-03-29T03:20:06.477Z,8.19
2019-03-29T03:21:06.761Z,8.27
2019-03-29T03:22:06.687Z,8.13
2019-03-29T03:23:06.724Z,8.2
2019-03-29T03:24:06.599Z,8.2
2019-03-29T03:25:06.677Z,8.13
2019-03-29T03:26:06.484Z,8.03
2019-03-29T03:27:06.655Z,8.13
2019-03-29T03:28:06.663Z,8.05
2019-03-29T03:29:06.441Z,8.05
2019-03-29T03:30:06.484Z,8
2019-03-29T03:31:06.648Z,8.05
2019-03-29T03:32:06.641Z,8.03
2019-03-29T03:33:06.734Z,8.03
2019-03-29T03:34:06.417Z,8.01
2019-03-29T03:35:06.672Z,8.06
2019-03-29T03:36:06.377Z,8.05
2019-03-29T03:37:06.596Z,8.05
2019-03-29T03:38:06.595Z,8.08
2019-03-29T03:39:06.570Z,8.1
2019-03-29T03:40:06.128Z,8.06
2019-03-29T03:41:06.565Z,8.08
2019-03-29T03:42:06.567Z,8.08
2019-03-29T03:43:06.310Z,8.08
2019-03-29T03:44:06.564Z,7.94
2019-03-29T03:45:06.549Z,8.06
2019-03-29T03:46:06.524Z,7.94
2019-03-29T03:47:06.534Z,7.94
2019-03-29T03:48:06.274Z,7.91
2019-03-29T03:49:06.508Z,7.87
2019-03-29T03:50:06.911Z,7.97
2019-03-29T03:51:06.249Z,7.91
2019-03-29T03:52:08.297Z,7.91
2019-03-29T03:53:06.475Z,8
2019-03-29T03:54:06.487Z,7.94
2019-03-29T03:55:06.467Z,7.93
2019-03-29T03:56:06.513Z,7.91
2019-03-29T03:57:06.464Z,7.94
2019-03-29T03:58:06.468Z,7.85
2019-03-29T03:59:06.438Z,7.85
2019-03-29T04:00:06.177Z,7.88
2019-03-29T04:01:06.234Z,7.85
2019-03-29T04:02:06.407Z,7.87
2019-03-29T04:03:05.923Z,7.95
2019-03-29T04:04:06.407Z,7.79
2019-03-29T04:05:06.408Z,7.79
2019-03-29T04:06:06.156Z,7.79
2019-03-29T04:07:06.435Z,7.85
2019-03-29T04:08:06.135Z,7.77
2019-03-29T04:09:06.304Z,7.82
2019-03-29T04:10:06.350Z,7.82
2019-03-29T04:11:06.400Z,7.88
2019-03-29T04:12:06.366Z,7.82
2019-03-29T04:13:06.101Z,7.82
2019-03-29T04:14:06.358Z,7.77
2019-03-29T04:15:05.826Z,7.82
2019-03-29T04:16:06.070Z,7.82
2019-03-29T04:17:06.310Z,7.82
2019-03-29T04:18:06.041Z,7.7
2019-03-29T04:19:06.301Z,7.75
2019-03-29T04:20:06.045Z,7.67
2019-03-29T04:21:06.287Z,7.58
2019-03-29T04:22:06.595Z,7.57
2019-03-29T04:23:06.285Z,7.6
2019-03-29T04:24:06.015Z,7.58
2019-03-29T04:25:06.295Z,7.63
2019-03-29T04:26:06.260Z,7.67
2019-03-29T04:27:06.005Z,7.48
2019-03-29T04:28:06.242Z,7.57
2019-03-29T04:29:09.354Z,7.6
2019-03-29T04:30:05.966Z,7.58
2019-03-29T04:31:05.967Z,7.58
2019-03-29T04:32:06.208Z,7.48
2019-03-29T04:33:10.458Z,7.43
2019-03-29T04:34:06.266Z,7.57
2019-03-29T04:35:05.975Z,7.56
2019-03-29T04:36:06.106Z,7.53
2019-03-29T04:37:06.153Z,7.54
2019-03-29T04:38:06.349Z,7.53
2019-03-29T04:39:06.164Z,7.48
2019-03-29T04:40:12.835Z,7.47
2019-03-29T04:41:05.899Z,7.47
2019-03-29T04:42:06.121Z,7.47
2019-03-29T04:43:06.125Z,7.36
2019-03-29T04:44:05.848Z,7.43
2019-03-29T04:45:06.102Z,7.48
2019-03-29T04:46:06.105Z,7.51
2019-03-29T04:47:06.073Z,7.47
2019-03-29T04:48:06.103Z,7.51
2019-03-29T04:49:06.065Z,7.57
2019-03-29T04:50:06.044Z,7.45
2019-03-29T04:51:05.892Z,7.47
2019-03-29T04:52:05.543Z,7.47
2019-03-29T04:53:05.767Z,7.53
2019-03-29T04:54:06.016Z,7.51
2019-03-29T04:55:05.766Z,7.48
2019-03-29T04:56:05.764Z,7.45
2019-03-29T04:57:05.756Z,7.45
2019-03-29T04:58:05.517Z,7.38
2019-03-29T04:59:05.725Z,7.38
2019-03-29T05:00:05.771Z,7.38
2019-03-29T05:01:05.478Z,7.35
2019-03-29T05:02:05.717Z,7.32
2019-03-29T05:03:05.459Z,7.32
2019-03-29T05:04:05.947Z,7.36
2019-03-29T05:05:05.946Z,7.33
2019-03-29T05:06:05.939Z,7.33
2019-03-29T05:07:05.666Z,7.29
2019-03-29T05:08:05.667Z,7.29
2019-03-29T05:09:05.663Z,7.29
2019-03-29T05:10:05.399Z,7.28
2019-03-29T05:11:05.646Z,7.25
2019-03-29T05:12:05.919Z,7.29
2019-03-29T05:13:05.622Z,7.28
2019-03-29T05:14:05.883Z,7.32
2019-03-29T05:15:05.852Z,7.23
2019-03-29T05:16:05.597Z,7.36
2019-03-29T05:17:05.855Z,7.36
2019-03-29T05:18:05.836Z,7.33
2019-03-29T05:19:05.574Z,7.31
2019-03-29T05:20:05.326Z,7.33
2019-03-29T05:21:05.555Z,7.32
2019-03-29T05:22:09.062Z,7.35
2019-03-29T05:23:05.815Z,7.33
2019-03-29T05:24:05.550Z,7.28
2019-03-29T05:25:05.779Z,7.28
2019-03-29T05:26:05.770Z,7.33
2019-03-29T05:27:05.516Z,7.32
2019-03-29T05:28:05.507Z,7.29
2019-03-29T05:29:05.505Z,7.29
2019-03-29T05:30:05.742Z,7.31
2019-03-29T05:31:05.761Z,7.29
2019-03-29T05:32:05.731Z,7.35
2019-03-29T05:33:05.717Z,7.33
2019-03-29T05:34:05.456Z,7.38
2019-03-29T05:35:05.471Z,7.43
2019-03-29T05:36:05.447Z,7.47
2019-03-29T05:37:05.693Z,7.51
2019-03-29T05:38:05.701Z,7.53
2019-03-29T05:39:05.429Z,7.54
2019-03-29T05:40:05.673Z,7.54
2019-03-29T05:41:05.416Z,7.76
2019-03-29T05:42:05.664Z,7.8
2019-03-29T05:43:05.640Z,7.87
2019-03-29T05:44:05.382Z,7.88
2019-03-29T05:45:05.643Z,7.97
2019-03-29T05:46:05.381Z,7.97
2019-03-29T05:47:05.618Z,7.91
2019-03-29T05:48:05.380Z,8.06
2019-03-29T05:49:05.346Z,8.05
2019-03-29T05:50:05.598Z,8.08
2019-03-29T05:51:05.351Z,8.2
2019-03-29T05:52:05.637Z,8.23
2019-03-29T05:53:05.354Z,8.19
2019-03-29T05:54:05.570Z,8.28
2019-03-29T05:55:05.569Z,8.42
2019-03-29T05:56:05.292Z,8.44
2019-03-29T05:57:05.289Z,8.49
2019-03-29T05:58:05.289Z,8.48
2019-03-29T05:59:05.527Z,8.53
2019-03-29T06:00:05.511Z,8.64
2019-03-29T06:01:05.266Z,8.67
2019-03-29T06:02:05.504Z,8.7
2019-03-29T06:03:05.500Z,8.69
2019-03-29T06:04:05.255Z,8.82
2019-03-29T06:05:05.482Z,8.89
2019-03-29T06:06:05.269Z,8.88
2019-03-29T06:07:05.483Z,8.87
2019-03-29T06:08:05.238Z,9
2019-03-29T06:09:05.458Z,9
2019-03-29T06:10:05.444Z,9.06
2019-03-29T06:11:05.446Z,9.04
2019-03-29T06:12:05.198Z,9.13
2019-03-29T06:13:05.442Z,9.14
2019-03-29T06:14:05.201Z,9.1
2019-03-29T06:15:05.166Z,9.06
2019-03-29T06:16:08.637Z,9.14
2019-03-29T06:17:05.157Z,9.14
2019-03-29T06:18:05.404Z,9.14
2019-03-29T06:19:05.388Z,9.14
2019-03-29T06:20:05.380Z,9.19
2019-03-29T06:21:05.135Z,9.26
2019-03-29T06:22:05.134Z,9.34
2019-03-29T06:23:05.136Z,9.28
2019-03-29T06:24:04.870Z,9.36
2019-03-29T06:25:05.439Z,9.4
2019-03-29T06:26:05.132Z,9.39
2019-03-29T06:27:05.095Z,9.4
2019-03-29T06:28:05.394Z,9.58
2019-03-29T06:29:05.369Z,9.55
2019-03-29T06:30:05.348Z,9.61
2019-03-29T06:31:05.076Z,9.62
2019-03-29T06:32:05.365Z,9.68
2019-03-29T06:33:05.065Z,9.68
2019-03-29T06:34:05.307Z,9.79
2019-03-29T06:35:05.049Z,9.83
2019-03-29T06:36:05.075Z,9.89
2019-03-29T06:37:05.045Z,9.86
2019-03-29T06:38:05.280Z,9.91
2019-03-29T06:39:05.267Z,9.92
2019-03-29T06:40:05.028Z,9.95
2019-03-29T06:41:07.834Z,9.97
2019-03-29T06:42:05.258Z,9.91
2019-03-29T06:43:05.251Z,9.99
2019-03-29T06:44:05.247Z,9.99
2019-03-29T06:45:05.008Z,10.1
2019-03-29T06:46:04.990Z,10.13
2019-03-29T06:47:05.251Z,10.12
2019-03-29T06:48:05.240Z,10.26
2019-03-29T06:49:05.005Z,10.59
2019-03-29T06:50:04.715Z,11.15
2019-03-29T06:51:05.307Z,11.83
2019-03-29T06:52:05.242Z,12.5
2019-03-29T06:53:07.085Z,13.35
2019-03-29T06:54:05.195Z,13.95
2019-03-29T06:55:05.024Z,14.62
2019-03-29T06:56:04.957Z,15.21
2019-03-29T06:57:04.696Z,15.76
2019-03-29T06:58:05.197Z,16.12
2019-03-29T06:59:04.955Z,16.35
2019-03-29T07:00:05.041Z,16.46
2019-03-29T07:01:05.210Z,16.46
2019-03-29T07:02:05.184Z,16.38
2019-03-29T07:03:05.999Z,16.23
2019-03-29T07:04:04.955Z,16.28
2019-03-29T07:05:05.265Z,16.05
2019-03-29T07:06:05.197Z,15.75
2019-03-29T07:07:04.978Z,15.21
2019-03-29T07:08:05.208Z,14.6
2019-03-29T07:09:04.943Z,14.32
2019-03-29T07:10:04.968Z,14.33
2019-03-29T07:11:18.878Z,14.44
2019-03-29T07:12:05.215Z,14.48
2019-03-29T07:13:05.186Z,14.62
2019-03-29T07:14:04.959Z,14.66
2019-03-29T07:15:05.206Z,15.06
2019-03-29T07:16:04.972Z,15.21
2019-03-29T07:17:05.201Z,15.25
2019-03-29T07:18:05.214Z,15.54
2019-03-29T07:19:07.463Z,15.84
2019-03-29T07:20:04.945Z,16.32
2019-03-29T07:21:05.218Z,16.87
2019-03-29T07:22:04.927Z,17.31
2019-03-29T07:23:04.938Z,17.72
2019-03-29T07:24:05.214Z,18.18
2019-03-29T07:25:05.205Z,18.38
2019-03-29T07:26:05.191Z,18.65
2019-03-29T07:27:05.209Z,18.78
2019-03-29T07:28:05.192Z,18.83
2019-03-29T07:29:04.723Z,19.07
2019-03-29T07:30:05.270Z,18.98
2019-03-29T07:31:04.973Z,18.68
2019-03-29T07:32:05.216Z,18.62
2019-03-29T07:33:05.202Z,18.89
2019-03-29T07:34:04.971Z,19
2019-03-29T07:35:04.971Z,19.07
2019-03-29T07:36:05.223Z,19.12
2019-03-29T07:37:08.224Z,19.36
2019-03-29T07:38:05.218Z,19.34
2019-03-29T07:39:04.715Z,19.64
2019-03-29T07:40:05.219Z,19.69
2019-03-29T07:41:05.223Z,19.84
2019-03-29T07:42:04.729Z,20.03
2019-03-29T07:43:04.815Z,20.41
2019-03-29T07:44:05.229Z,20.39
2019-03-29T07:45:05.225Z,20.21
2019-03-29T07:46:05.002Z,19.96
2019-03-29T07:47:05.237Z,20.09
2019-03-29T07:48:05.249Z,20.28
2019-03-29T07:49:04.996Z,20.39
2019-03-29T07:50:04.998Z,20.48
2019-03-29T07:51:04.770Z,20.56
2019-03-29T07:52:05.255Z,20.6
2019-03-29T07:53:05.038Z,20.8
2019-03-29T07:54:05.042Z,21.2
2019-03-29T07:55:05.031Z,21.29
2019-03-29T07:56:05.025Z,21.11
2019-03-29T07:57:05.313Z,21.11
2019-03-29T07:58:05.043Z,21.02
2019-03-29T07:59:05.084Z,20.88
2019-03-29T08:00:05.142Z,21.17
2019-03-29T08:01:05.102Z,21.12
2019-03-29T08:02:06.077Z,21.21
2019-03-29T08:03:05.064Z,21.25
2019-03-29T08:04:05.078Z,21.46
2019-03-29T08:05:05.345Z,21.66
2019-03-29T08:06:05.062Z,21.76
2019-03-29T08:07:06.044Z,21.83
2019-03-29T08:08:05.077Z,21.77
2019-03-29T08:09:06.039Z,21.88
2019-03-29T08:10:08.060Z,21.85
2019-03-29T08:11:05.203Z,21.99
2019-03-29T08:12:05.096Z,22.07
2019-03-29T08:13:05.514Z,22.26
2019-03-29T08:14:05.105Z,22.26
2019-03-29T08:15:05.113Z,22.44
2019-03-29T08:16:08.772Z,22.44
2019-03-29T08:17:05.115Z,22.51
2019-03-29T08:18:06.431Z,22.65
2019-03-29T08:19:05.132Z,22.66
2019-03-29T08:20:46.295Z,22.51
2019-03-29T08:21:05.126Z,22.45
2019-03-29T08:22:05.412Z,22.02
2019-03-29T08:23:05.145Z,21.77
2019-03-29T08:24:05.137Z,21.66
2019-03-29T08:25:05.257Z,21.2
2019-03-29T08:26:05.173Z,20.7
2019-03-29T08:27:05.211Z,20.67
2019-03-29T08:28:05.162Z,20.34
2019-03-29T08:29:05.427Z,19.92
2019-03-29T08:30:05.418Z,19.3
2019-03-29T08:31:05.173Z,18.43
2019-03-29T08:32:05.183Z,17.8
2019-03-29T08:33:04.938Z,17.3
2019-03-29T08:34:05.438Z,16.84
2019-03-29T08:35:05.219Z,16.46
2019-03-29T08:36:05.218Z,16.16
2019-03-29T08:37:05.444Z,16.02
2019-03-29T08:38:08.532Z,15.79
2019-03-29T08:39:05.467Z,15.62
2019-03-29T08:40:05.466Z,15.44
2019-03-29T08:41:05.206Z,15.28
2019-03-29T08:42:05.481Z,15.27
2019-03-29T08:43:05.226Z,15.24
2019-03-29T08:44:05.469Z,15.11
2019-03-29T08:45:05.470Z,14.97
2019-03-29T08:46:05.478Z,14.92
2019-03-29T08:47:05.268Z,14.97
2019-03-29T08:48:08.950Z,15.09
2019-03-29T08:49:05.472Z,15.06
2019-03-29T08:50:05.479Z,15.11
2019-03-29T08:51:05.470Z,15.06
2019-03-29T08:52:04.971Z,15.09
2019-03-29T08:53:05.258Z,15.09
2019-03-29T08:54:07.060Z,14.99
2019-03-29T08:55:05.243Z,14.96
2019-03-29T08:56:05.459Z,14.91
2019-03-29T08:57:05.232Z,15.02
2019-03-29T08:58:05.480Z,15.03
2019-03-29T08:59:05.484Z,14.97
2019-03-29T09:00:05.475Z,15.15
2019-03-29T09:01:05.668Z,15.24
2019-03-29T09:02:05.233Z,15.33
2019-03-29T09:03:05.232Z,15.46
2019-03-29T09:04:09.967Z,15.54
2019-03-29T09:05:04.966Z,15.75
2019-03-29T09:06:05.213Z,15.72
2019-03-29T09:07:05.218Z,15.88
2019-03-29T09:08:05.218Z,15.95
2019-03-29T09:09:05.478Z,15.94
2019-03-29T09:10:05.203Z,15.84
2019-03-29T09:11:07.547Z,15.76
2019-03-29T09:12:18.931Z,15.76
2019-03-29T09:13:08.733Z,15.57
2019-03-29T09:14:05.210Z,15.58
2019-03-29T09:15:08.803Z,15.43
2019-03-29T09:16:05.199Z,15.39
2019-03-29T09:17:05.194Z,15.27
2019-03-29T09:18:05.235Z,15.22
2019-03-29T09:19:05.199Z,15.27
2019-03-29T09:20:05.451Z,15.4
2019-03-29T09:21:05.439Z,15.44
2019-03-29T09:22:05.209Z,15.59
2019-03-29T09:23:04.951Z,15.72
2019-03-29T09:24:05.216Z,15.79
2019-03-29T09:25:05.201Z,15.92
2019-03-29T09:26:05.459Z,16.05
2019-03-29T09:27:05.196Z,16.04
2019-03-29T09:28:05.226Z,16.1
2019-03-29T09:29:05.199Z,16.01
2019-03-29T09:30:07.295Z,15.8
2019-03-29T09:31:05.461Z,15.47
2019-03-29T09:32:05.202Z,15.06
2019-03-29T09:33:04.968Z,14.88
2019-03-29T09:34:05.216Z,14.65
2019-03-29T09:35:05.448Z,14.6
2019-03-29T09:36:07.512Z,14.51
2019-03-29T09:37:04.957Z,14.58
2019-03-29T09:38:05.442Z,14.55
2019-03-29T09:39:05.209Z,14.5
2019-03-29T09:40:05.449Z,14.58
2019-03-29T09:41:05.451Z,14.58
2019-03-29T09:42:05.435Z,14.62
2019-03-29T09:43:13.467Z,14.51
2019-03-29T09:44:05.440Z,14.45
2019-03-29T09:45:05.182Z,14.43
2019-03-29T09:46:07.991Z,14.37
2019-03-29T09:47:05.184Z,14.36
2019-03-29T09:48:05.428Z,14.37
2019-03-29T09:49:08.231Z,14.4
2019-03-29T09:50:04.925Z,14.48
2019-03-29T09:51:05.169Z,14.53
2019-03-29T09:52:05.418Z,14.65
2019-03-29T09:53:06.412Z,14.88
2019-03-29T09:54:05.225Z,14.92
2019-03-29T09:55:05.172Z,14.88
2019-03-29T09:56:05.429Z,14.81
2019-03-29T09:57:05.168Z,14.84
2019-03-29T09:58:05.175Z,14.85
2019-03-29T09:59:05.424Z,14.84
2019-03-29T10:00:23.166Z,14.92
2019-03-29T10:01:04.903Z,15
2019-03-29T10:02:05.434Z,15
2019-03-29T10:03:05.171Z,15.1
2019-03-29T10:04:05.400Z,15.15
2019-03-29T10:05:05.282Z,15.29
2019-03-29T10:06:05.413Z,15.42
2019-03-29T10:07:05.419Z,15.55
2019-03-29T10:08:05.176Z,15.77
2019-03-29T10:09:05.139Z,15.9
2019-03-29T10:10:04.897Z,16.05
2019-03-29T10:11:04.901Z,16.12
2019-03-29T10:12:05.428Z,16.38
2019-03-29T10:13:05.162Z,16.49
2019-03-29T10:14:05.424Z,16.43
2019-03-29T10:15:05.385Z,16.6
2019-03-29T10:16:05.397Z,16.66
2019-03-29T10:17:05.136Z,16.6
2019-03-29T10:18:05.147Z,16.54
2019-03-29T10:19:05.390Z,16.64
2019-03-29T10:20:05.401Z,16.58
2019-03-29T10:21:05.394Z,16.79
2019-03-29T10:22:05.394Z,16.81
2019-03-29T10:23:05.392Z,17.12
2019-03-29T10:24:04.890Z,17.16
2019-03-29T10:25:21.759Z,17.24
2019-03-29T10:26:05.392Z,17.42
2019-03-29T10:27:05.165Z,17.33
2019-03-29T10:28:05.391Z,17.29
2019-03-29T10:29:05.386Z,17.19
2019-03-29T10:30:05.138Z,17.2
2019-03-29T10:31:05.383Z,17.16
2019-03-29T10:32:11.326Z,17.02
2019-03-29T10:33:05.143Z,16.84
2019-03-29T10:34:05.412Z,16.84
2019-03-29T10:35:05.133Z,16.86
2019-03-29T10:36:05.140Z,16.87
2019-03-29T10:37:05.397Z,16.84
2019-03-29T10:38:04.889Z,16.86
2019-03-29T10:39:05.384Z,16.97
2019-03-29T10:40:05.142Z,17.04
2019-03-29T10:41:05.145Z,17.15
2019-03-29T10:42:04.904Z,17.19
2019-03-29T10:43:04.893Z,17.41
2019-03-29T10:44:04.889Z,17.48
2019-03-29T10:45:05.400Z,17.45
2019-03-29T10:46:04.902Z,17.63
2019-03-29T10:47:05.134Z,17.6
2019-03-29T10:48:05.156Z,17.76
2019-03-29T10:49:05.384Z,17.8
2019-03-29T10:50:05.394Z,17.94
2019-03-29T10:51:08.147Z,17.9
2019-03-29T10:52:05.401Z,17.89
2019-03-29T10:53:05.149Z,17.89
2019-03-29T10:54:05.138Z,18.01
2019-03-29T10:55:07.466Z,17.95
2019-03-29T10:56:05.389Z,18.05
2019-03-29T10:57:05.234Z,17.9
2019-03-29T10:58:05.176Z,17.89
2019-03-29T10:59:05.148Z,17.79
2019-03-29T11:00:04.897Z,17.76
2019-03-29T11:01:05.389Z,17.63
2019-03-29T11:02:05.486Z,17.68
2019-03-29T11:03:05.397Z,17.71
2019-03-29T11:04:05.394Z,17.68
2019-03-29T11:05:05.195Z,17.67
2019-03-29T11:06:05.393Z,17.7
2019-03-29T11:07:05.398Z,17.76
2019-03-29T11:08:05.402Z,17.7
2019-03-29T11:09:05.162Z,17.68
2019-03-29T11:10:05.149Z,17.64
2019-03-29T11:11:04.903Z,17.64
2019-03-29T11:12:05.407Z,17.52
2019-03-29T11:13:17.044Z,17.45
2019-03-29T11:14:05.149Z,17.36
2019-03-29T11:15:08.950Z,17.48
2019-03-29T11:16:05.159Z,17.34
2019-03-29T11:17:05.152Z,17.31
2019-03-29T11:18:05.179Z,17.41
2019-03-29T11:19:05.413Z,17.27
2019-03-29T11:20:05.394Z,17.2
2019-03-29T11:21:05.400Z,17.2
2019-03-29T11:22:05.395Z,17.24
2019-03-29T11:23:05.402Z,17.31
2019-03-29T11:24:05.163Z,17.33
2019-03-29T11:25:05.162Z,17.31
2019-03-29T11:26:05.308Z,17.26
2019-03-29T11:27:05.149Z,17.14
2019-03-29T11:28:05.406Z,17.2
2019-03-29T11:29:05.156Z,17.09
2019-03-29T11:30:05.149Z,17.09
2019-03-29T11:31:05.161Z,17.05
2019-03-29T11:32:05.392Z,17.04
2019-03-29T11:33:05.383Z,17.05
2019-03-29T11:34:05.405Z,17.09
2019-03-29T11:35:05.392Z,17.02
2019-03-29T11:36:05.156Z,17.15
2019-03-29T11:37:05.161Z,17.19
2019-03-29T11:38:05.406Z,17.11
2019-03-29T11:39:04.884Z,17.29
2019-03-29T11:40:05.275Z,17.3
2019-03-29T11:41:05.384Z,17.38
2019-03-29T11:42:07.966Z,17.34
2019-03-29T11:43:05.407Z,17.49
2019-03-29T11:44:05.392Z,17.51
2019-03-29T11:45:05.386Z,17.46
2019-03-29T11:46:05.387Z,17.45
2019-03-29T11:47:05.376Z,17.44
2019-03-29T11:48:13.081Z,17.46
2019-03-29T11:49:05.149Z,17.48
2019-03-29T11:50:05.377Z,17.49
2019-03-29T11:51:18.539Z,17.39
2019-03-29T11:52:05.395Z,17.44
2019-03-29T11:53:05.378Z,17.36
2019-03-29T11:54:05.374Z,17.38
2019-03-29T11:55:05.377Z,17.38
2019-03-29T11:56:05.665Z,17.34
2019-03-29T11:57:05.121Z,17.26
2019-03-29T11:58:05.121Z,17.19
2019-03-29T11:59:05.134Z,17.12
2019-03-29T12:00:05.381Z,17.11
2019-03-29T12:01:07.946Z,17.15
2019-03-29T12:02:05.120Z,17.14
2019-03-29T12:03:08.641Z,17.11
2019-03-29T12:04:05.386Z,17.16
2019-03-29T12:05:05.122Z,17.16
2019-03-29T12:06:05.124Z,17.3
2019-03-29T12:07:08.476Z,17.31
2019-03-29T12:08:05.148Z,17.44
2019-03-29T12:09:05.384Z,17.39
2019-03-29T12:10:05.371Z,17.33
2019-03-29T12:11:05.358Z,17.36
2019-03-29T12:12:05.360Z,17.42
2019-03-29T12:13:05.359Z,17.42
2019-03-29T12:14:07.449Z,17.36
2019-03-29T12:15:05.146Z,17.3
2019-03-29T12:16:05.941Z,17.41
2019-03-29T12:17:05.126Z,17.3
2019-03-29T12:18:05.234Z,17.16
2019-03-29T12:19:05.363Z,17.11
2019-03-29T12:20:05.116Z,17.15
2019-03-29T12:21:05.372Z,17.14
2019-03-29T12:22:05.359Z,17.23
2019-03-29T12:23:05.115Z,17.15
2019-03-29T12:24:05.118Z,17.05
2019-03-29T12:25:05.374Z,17.02
2019-03-29T12:26:05.462Z,17.08
2019-03-29T12:27:05.354Z,17.14
2019-03-29T12:28:05.352Z,17.09
2019-03-29T12:29:05.372Z,17.15
2019-03-29T12:30:05.348Z,17.08
2019-03-29T12:31:04.854Z,17.01
2019-03-29T12:32:05.432Z,17.2
2019-03-29T12:33:05.367Z,17.16
2019-03-29T12:34:04.869Z,17.27
2019-03-29T12:35:04.858Z,17.33
2019-03-29T12:36:05.123Z,17.36
2019-03-29T12:37:05.131Z,17.33
2019-03-29T12:38:05.346Z,17.36
2019-03-29T12:39:05.102Z,17.39
2019-03-29T12:40:05.361Z,17.3
2019-03-29T12:41:05.359Z,17.34
2019-03-29T12:42:05.097Z,17.23
2019-03-29T12:43:05.371Z,17.29
2019-03-29T12:44:05.359Z,17.34
2019-03-29T12:45:05.351Z,17.41
2019-03-29T12:46:05.327Z,17.41
2019-03-29T12:47:05.102Z,17.46
2019-03-29T12:48:05.341Z,17.51
2019-03-29T12:49:05.342Z,17.48
2019-03-29T12:50:05.345Z,17.49
2019-03-29T12:51:05.096Z,17.6
2019-03-29T12:52:05.091Z,17.54
2019-03-29T12:53:05.090Z,17.57
2019-03-29T12:54:05.094Z,17.54
2019-03-29T12:55:05.081Z,17.56
2019-03-29T12:56:05.326Z,17.57
2019-03-29T12:57:06.894Z,17.49
2019-03-29T12:58:05.097Z,17.41
2019-03-29T12:59:05.089Z,17.34
2019-03-29T13:00:04.839Z,17.42
2019-03-29T13:01:05.085Z,17.34
2019-03-29T13:02:05.332Z,17.36
2019-03-29T13:03:05.446Z,17.45
2019-03-29T13:04:05.332Z,17.49
2019-03-29T13:05:04.831Z,17.51
2019-03-29T13:06:05.107Z,17.49
2019-03-29T13:07:05.354Z,17.46